createdAt,value
2024-02-02T00:20:41.851Z,99.78
2024-02-02T00:50:41.728Z,99.77
2024-02-02T01:20:41.594Z,99.75
2024-02-02T01:50:41.617Z,99.25
2024-02-02T02:20:41.556Z,98.7
2024-02-02T02:50:41.453Z,98.03
2024-02-02T03:20:41.390Z,96.18
2024-02-02T03:50:41.191Z,95.7
2024-02-02T04:20:41.195Z,95.64
2024-02-02T04:50:41.112Z,96.51
2024-02-02T05:20:41.067Z,97.02
2024-02-02T05:50:41.029Z,97.08
2024-02-02T06:20:40.986Z,95.91
2024-02-02T06:47:46.294Z,94.16
2024-02-02T07:20:40.762Z,92.02
2024-02-02T07:50:40.789Z,90.22
2024-02-02T08:20:40.671Z,90.06
2024-02-02T08:46:46.105Z,89.98
2024-02-02T08:50:40.605Z,89.98
2024-02-02T09:13:45.964Z,89.05
2024-02-02T09:20:40.419Z,89.05
2024-02-02T09:49:45.995Z,87.83
2024-02-02T10:14:45.884Z,88.38
2024-02-02T10:20:40.326Z,88.38
2024-02-02T10:46:45.800Z,87.76
2024-02-02T10:50:40.239Z,87.76
2024-02-02T11:06:45.974Z,88.2
2024-02-02T11:20:40.186Z,88.2
2024-02-02T11:33:45.877Z,87.83
2024-02-02T11:50:40.201Z,87.83
2024-02-02T12:20:40.104Z,88.26
2024-02-02T12:40:45.761Z,87.8
2024-02-02T12:50:39.964Z,87.8
2024-02-02T13:18:45.691Z,87.64
2024-02-02T13:20:39.941Z,87.64
2024-02-02T13:33:47.626Z,88.78
2024-02-02T13:50:39.913Z,88.78
2024-02-02T14:08:45.615Z,90.16
2024-02-02T14:20:39.871Z,90.16
2024-02-02T14:37:45.598Z,92.2
2024-02-02T14:50:39.762Z,92.2
2024-02-02T15:20:39.670Z,94.49
2024-02-02T15:50:39.571Z,96.16
2024-02-02T16:20:39.437Z,97.99
2024-02-02T17:20:39.199Z,99.99
2024-02-02T17:50:39.299Z,99.99
2024-02-02T18:20:39.121Z,99.99
2024-02-02T18:50:39.055Z,99.99
2024-02-02T19:20:39.072Z,99.99
2024-02-02T19:50:39.024Z,99.99
2024-02-02T20:20:38.917Z,99.99
2024-02-02T20:50:38.872Z,99.99
2024-02-02T21:20:38.814Z,99.99
2024-02-02T21:50:38.756Z,99.99
2024-02-02T22:20:38.656Z,99.99
2024-02-02T22:50:38.436Z,99.99
2024-02-02T23:20:38.320Z,99.99
2024-02-02T23:50:38.274Z,99.99
